sensor_id;sensor_type;location;lat;lon;timestamp;P1;durP1;ratioP1;P2;durP2;ratioP2
40945;SDS011;55635;50.264;11.918;2024-02-21T00:02:26;17.05;;;6.20;;
40945;SDS011;55635;50.264;11.918;2024-02-21T00:05:07;16.95;;;4.95;;
40945;SDS011;55635;50.264;11.918;2024-02-21T00:07:48;18.83;;;5.88;;
40945;SDS011;55635;50.264;11.918;2024-02-21T00:10:29;16.73;;;5.10;;
40945;SDS011;55635;50.264;11.918;2024-02-21T00:13:11;14.80;;;6.05;;
40945;SDS011;55635;50.264;11.918;2024-02-21T00:15:52;15.43;;;5.55;;
40945;SDS011;55635;50.264;11.918;2024-02-21T00:18:34;17.60;;;5.22;;
40945;SDS011;55635;50.264;11.918;2024-02-21T00:21:15;20.77;;;6.20;;
40945;SDS011;55635;50.264;11.918;2024-02-21T00:23:58;17.63;;;5.82;;
40945;SDS011;55635;50.264;11.918;2024-02-21T00:26:39;14.02;;;6.50;;
40945;SDS011;55635;50.264;11.918;2024-02-21T00:29:20;27.17;;;6.18;;
40945;SDS011;55635;50.264;11.918;2024-02-21T00:32:01;14.25;;;5.93;;
40945;SDS011;55635;50.264;11.918;2024-02-21T00:34:43;17.90;;;5.47;;
40945;SDS011;55635;50.264;11.918;2024-02-21T00:37:24;14.82;;;6.22;;
40945;SDS011;55635;50.264;11.918;2024-02-21T00:40:05;15.85;;;5.57;;
40945;SDS011;55635;50.264;11.918;2024-02-21T00:42:47;18.45;;;5.63;;
40945;SDS011;55635;50.264;11.918;2024-02-21T00:45:28;15.43;;;6.28;;
40945;SDS011;55635;50.264;11.918;2024-02-21T00:48:09;15.57;;;5.97;;
40945;SDS011;55635;50.264;11.918;2024-02-21T00:50:50;24.67;;;6.60;;
40945;SDS011;55635;50.264;11.918;2024-02-21T00:53:32;21.88;;;6.13;;
40945;SDS011;55635;50.264;11.918;2024-02-21T00:56:13;21.98;;;6.22;;
40945;SDS011;55635;50.264;11.918;2024-02-21T00:58:54;17.20;;;6.60;;
40945;SDS011;55635;50.264;11.918;2024-02-21T01:01:35;19.85;;;5.90;;
40945;SDS011;55635;50.264;11.918;2024-02-21T01:04:16;14.75;;;5.63;;
40945;SDS011;55635;50.264;11.918;2024-02-21T01:06:57;20.40;;;7.13;;
40945;SDS011;55635;50.264;11.918;2024-02-21T01:09:38;20.02;;;7.07;;
40945;SDS011;55635;50.264;11.918;2024-02-21T01:12:19;25.83;;;6.55;;
40945;SDS011;55635;50.264;11.918;2024-02-21T01:15:00;18.10;;;5.88;;
40945;SDS011;55635;50.264;11.918;2024-02-21T01:17:41;13.98;;;6.18;;
40945;SDS011;55635;50.264;11.918;2024-02-21T01:20:22;15.55;;;6.00;;
40945;SDS011;55635;50.264;11.918;2024-02-21T01:23:03;17.40;;;5.75;;
40945;SDS011;55635;50.264;11.918;2024-02-21T01:25:44;19.13;;;6.32;;
40945;SDS011;55635;50.264;11.918;2024-02-21T01:28:25;21.05;;;6.70;;
40945;SDS011;55635;50.264;11.918;2024-02-21T01:31:06;16.33;;;6.72;;
40945;SDS011;55635;50.264;11.918;2024-02-21T01:33:47;24.08;;;6.35;;
40945;SDS011;55635;50.264;11.918;2024-02-21T01:36:28;24.25;;;6.32;;
40945;SDS011;55635;50.264;11.918;2024-02-21T01:39:09;22.70;;;6.95;;
40945;SDS011;55635;50.264;11.918;2024-02-21T01:41:50;16.45;;;6.22;;
40945;SDS011;55635;50.264;11.918;2024-02-21T01:44:31;18.90;;;6.00;;
40945;SDS011;55635;50.264;11.918;2024-02-21T01:47:12;21.77;;;6.07;;
40945;SDS011;55635;50.264;11.918;2024-02-21T01:49:55;22.48;;;6.15;;
40945;SDS011;55635;50.264;11.918;2024-02-21T01:52:36;16.02;;;6.63;;
40945;SDS011;55635;50.264;11.918;2024-02-21T01:55:17;19.30;;;6.18;;
40945;SDS011;55635;50.264;11.918;2024-02-21T01:57:58;14.82;;;6.30;;
40945;SDS011;55635;50.264;11.918;2024-02-21T02:00:43;14.90;;;6.55;;
40945;SDS011;55635;50.264;11.918;2024-02-21T02:03:25;21.40;;;6.13;;
40945;SDS011;55635;50.264;11.918;2024-02-21T02:06:07;13.40;;;6.60;;
40945;SDS011;55635;50.264;11.918;2024-02-21T02:08:48;20.73;;;6.22;;
40945;SDS011;55635;50.264;11.918;2024-02-21T02:11:31;12.48;;;6.10;;
40945;SDS011;55635;50.264;11.918;2024-02-21T02:14:12;19.27;;;6.50;;
40945;SDS011;55635;50.264;11.918;2024-02-21T02:16:53;18.55;;;6.63;;
40945;SDS011;55635;50.264;11.918;2024-02-21T02:19:34;27.67;;;7.40;;
40945;SDS011;55635;50.264;11.918;2024-02-21T02:22:16;15.13;;;5.85;;
40945;SDS011;55635;50.264;11.918;2024-02-21T02:25:03;18.45;;;6.93;;
40945;SDS011;55635;50.264;11.918;2024-02-21T02:27:44;18.95;;;6.07;;
40945;SDS011;55635;50.264;11.918;2024-02-21T02:30:25;18.02;;;6.53;;
40945;SDS011;55635;50.264;11.918;2024-02-21T02:33:07;29.95;;;6.57;;
40945;SDS011;55635;50.264;11.918;2024-02-21T02:35:48;17.58;;;5.93;;
40945;SDS011;55635;50.264;11.918;2024-02-21T02:38:29;15.05;;;5.30;;
40945;SDS011;55635;50.264;11.918;2024-02-21T02:41:10;17.33;;;5.45;;
40945;SDS011;55635;50.264;11.918;2024-02-21T02:43:51;16.23;;;6.88;;
40945;SDS011;55635;50.264;11.918;2024-02-21T02:46:32;19.90;;;7.10;;
40945;SDS011;55635;50.264;11.918;2024-02-21T02:49:14;20.40;;;6.75;;
40945;SDS011;55635;50.264;11.918;2024-02-21T02:51:55;16.83;;;6.25;;
40945;SDS011;55635;50.264;11.918;2024-02-21T02:54:35;14.13;;;6.25;;
40945;SDS011;55635;50.264;11.918;2024-02-21T02:57:17;23.65;;;6.28;;
40945;SDS011;55635;50.264;11.918;2024-02-21T02:59:58;15.40;;;5.38;;
40945;SDS011;55635;50.264;11.918;2024-02-21T03:02:40;14.93;;;6.93;;
40945;SDS011;55635;50.264;11.918;2024-02-21T03:05:25;18.95;;;6.35;;
40945;SDS011;55635;50.264;11.918;2024-02-21T03:08:05;15.63;;;5.90;;
40945;SDS011;55635;50.264;11.918;2024-02-21T03:10:47;18.17;;;6.53;;
40945;SDS011;55635;50.264;11.918;2024-02-21T03:13:28;17.20;;;5.47;;
40945;SDS011;55635;50.264;11.918;2024-02-21T03:16:08;14.73;;;6.28;;
40945;SDS011;55635;50.264;11.918;2024-02-21T03:18:50;18.92;;;6.32;;
40945;SDS011;55635;50.264;11.918;2024-02-21T03:21:31;18.20;;;6.95;;
40945;SDS011;55635;50.264;11.918;2024-02-21T03:24:11;15.68;;;5.68;;
40945;SDS011;55635;50.264;11.918;2024-02-21T03:26:52;17.83;;;5.25;;
40945;SDS011;55635;50.264;11.918;2024-02-21T03:29:33;17.83;;;6.28;;
40945;SDS011;55635;50.264;11.918;2024-02-21T03:32:14;18.80;;;6.35;;
40945;SDS011;55635;50.264;11.918;2024-02-21T03:34:55;15.93;;;6.07;;
40945;SDS011;55635;50.264;11.918;2024-02-21T03:37:36;18.15;;;5.90;;
40945;SDS011;55635;50.264;11.918;2024-02-21T03:40:17;13.88;;;5.78;;
40945;SDS011;55635;50.264;11.918;2024-02-21T03:42:58;17.70;;;6.50;;
40945;SDS011;55635;50.264;11.918;2024-02-21T03:45:39;26.58;;;7.20;;
40945;SDS011;55635;50.264;11.918;2024-02-21T03:48:20;20.63;;;6.35;;
40945;SDS011;55635;50.264;11.918;2024-02-21T03:51:00;14.27;;;6.85;;
40945;SDS011;55635;50.264;11.918;2024-02-21T03:53:42;15.82;;;6.30;;
40945;SDS011;55635;50.264;11.918;2024-02-21T03:56:23;23.45;;;6.07;;
40945;SDS011;55635;50.264;11.918;2024-02-21T03:59:04;21.33;;;7.07;;
40945;SDS011;55635;50.264;11.918;2024-02-21T04:01:45;18.58;;;6.03;;
40945;SDS011;55635;50.264;11.918;2024-02-21T04:04:25;18.48;;;6.00;;
40945;SDS011;55635;50.264;11.918;2024-02-21T04:07:06;17.17;;;6.25;;
40945;SDS011;55635;50.264;11.918;2024-02-21T04:09:48;16.02;;;5.85;;
40945;SDS011;55635;50.264;11.918;2024-02-21T04:12:29;18.38;;;6.30;;
40945;SDS011;55635;50.264;11.918;2024-02-21T04:15:10;19.50;;;6.07;;
40945;SDS011;55635;50.264;11.918;2024-02-21T04:17:51;23.13;;;6.38;;
40945;SDS011;55635;50.264;11.918;2024-02-21T04:20:33;21.05;;;6.50;;
40945;SDS011;55635;50.264;11.918;2024-02-21T04:23:15;15.70;;;6.65;;
40945;SDS011;55635;50.264;11.918;2024-02-21T04:25:56;14.80;;;5.93;;
40945;SDS011;55635;50.264;11.918;2024-02-21T04:28:37;22.95;;;6.38;;
40945;SDS011;55635;50.264;11.918;2024-02-21T04:31:18;23.98;;;8.00;;
40945;SDS011;55635;50.264;11.918;2024-02-21T04:33:59;18.63;;;7.10;;
40945;SDS011;55635;50.264;11.918;2024-02-21T04:36:40;20.10;;;6.70;;
40945;SDS011;55635;50.264;11.918;2024-02-21T04:39:21;22.30;;;6.93;;
40945;SDS011;55635;50.264;11.918;2024-02-21T04:42:02;21.55;;;7.35;;
40945;SDS011;55635;50.264;11.918;2024-02-21T04:44:43;19.90;;;6.97;;
40945;SDS011;55635;50.264;11.918;2024-02-21T04:47:24;26.02;;;7.25;;
40945;SDS011;55635;50.264;11.918;2024-02-21T04:50:06;25.05;;;7.13;;
40945;SDS011;55635;50.264;11.918;2024-02-21T04:52:47;30.85;;;6.97;;
40945;SDS011;55635;50.264;11.918;2024-02-21T04:55:29;19.88;;;6.30;;
40945;SDS011;55635;50.264;11.918;2024-02-21T04:58:09;21.17;;;6.40;;
40945;SDS011;55635;50.264;11.918;2024-02-21T05:00:50;21.67;;;7.53;;
40945;SDS011;55635;50.264;11.918;2024-02-21T05:03:31;22.25;;;7.70;;
40945;SDS011;55635;50.264;11.918;2024-02-21T05:06:12;15.95;;;6.35;;
40945;SDS011;55635;50.264;11.918;2024-02-21T05:08:53;19.63;;;7.10;;
40945;SDS011;55635;50.264;11.918;2024-02-21T05:11:35;21.05;;;7.63;;
40945;SDS011;55635;50.264;11.918;2024-02-21T05:14:17;23.00;;;7.78;;
40945;SDS011;55635;50.264;11.918;2024-02-21T05:16:58;24.08;;;7.63;;
40945;SDS011;55635;50.264;11.918;2024-02-21T05:19:39;20.95;;;7.80;;
40945;SDS011;55635;50.264;11.918;2024-02-21T05:22:20;27.98;;;7.35;;
40945;SDS011;55635;50.264;11.918;2024-02-21T05:25:01;20.40;;;7.60;;
40945;SDS011;55635;50.264;11.918;2024-02-21T05:27:42;23.63;;;6.80;;
40945;SDS011;55635;50.264;11.918;2024-02-21T05:30:23;19.73;;;7.25;;
40945;SDS011;55635;50.264;11.918;2024-02-21T05:33:05;22.98;;;6.78;;
40945;SDS011;55635;50.264;11.918;2024-02-21T05:35:47;27.00;;;8.27;;
40945;SDS011;55635;50.264;11.918;2024-02-21T05:38:28;24.45;;;8.65;;
40945;SDS011;55635;50.264;11.918;2024-02-21T05:41:09;21.52;;;7.63;;
40945;SDS011;55635;50.264;11.918;2024-02-21T05:43:50;20.38;;;7.50;;
40945;SDS011;55635;50.264;11.918;2024-02-21T05:46:31;22.20;;;7.72;;
40945;SDS011;55635;50.264;11.918;2024-02-21T05:49:12;23.25;;;7.43;;
40945;SDS011;55635;50.264;11.918;2024-02-21T05:51:54;21.08;;;7.65;;
40945;SDS011;55635;50.264;11.918;2024-02-21T05:54:37;25.17;;;7.43;;
40945;SDS011;55635;50.264;11.918;2024-02-21T05:57:21;27.58;;;8.20;;
40945;SDS011;55635;50.264;11.918;2024-02-21T06:00:03;19.92;;;7.50;;
40945;SDS011;55635;50.264;11.918;2024-02-21T06:02:52;22.02;;;7.85;;
40945;SDS011;55635;50.264;11.918;2024-02-21T06:05:37;20.83;;;7.75;;
40945;SDS011;55635;50.264;11.918;2024-02-21T06:08:18;16.92;;;7.63;;
40945;SDS011;55635;50.264;11.918;2024-02-21T06:11:00;22.67;;;7.60;;
40945;SDS011;55635;50.264;11.918;2024-02-21T06:13:41;15.93;;;7.05;;
40945;SDS011;55635;50.264;11.918;2024-02-21T06:16:22;17.58;;;6.63;;
40945;SDS011;55635;50.264;11.918;2024-02-21T06:19:03;20.15;;;8.10;;
40945;SDS011;55635;50.264;11.918;2024-02-21T06:21:44;23.33;;;7.95;;
40945;SDS011;55635;50.264;11.918;2024-02-21T06:24:25;17.70;;;7.35;;
40945;SDS011;55635;50.264;11.918;2024-02-21T06:27:06;18.38;;;8.40;;
40945;SDS011;55635;50.264;11.918;2024-02-21T06:29:47;18.50;;;6.75;;
40945;SDS011;55635;50.264;11.918;2024-02-21T06:32:28;19.40;;;7.68;;
40945;SDS011;55635;50.264;11.918;2024-02-21T06:35:09;17.70;;;7.10;;
40945;SDS011;55635;50.264;11.918;2024-02-21T06:37:50;23.70;;;7.38;;
40945;SDS011;55635;50.264;11.918;2024-02-21T06:40:32;17.33;;;6.28;;
40945;SDS011;55635;50.264;11.918;2024-02-21T06:43:19;17.35;;;7.28;;
40945;SDS011;55635;50.264;11.918;2024-02-21T06:46:00;18.35;;;7.65;;
40945;SDS011;55635;50.264;11.918;2024-02-21T06:48:42;15.63;;;7.60;;
40945;SDS011;55635;50.264;11.918;2024-02-21T06:51:23;24.30;;;6.05;;
40945;SDS011;55635;50.264;11.918;2024-02-21T06:54:05;18.17;;;6.85;;
40945;SDS011;55635;50.264;11.918;2024-02-21T06:56:46;13.63;;;6.82;;
40945;SDS011;55635;50.264;11.918;2024-02-21T06:59:27;22.67;;;7.00;;
40945;SDS011;55635;50.264;11.918;2024-02-21T07:02:08;20.55;;;7.30;;
40945;SDS011;55635;50.264;11.918;2024-02-21T07:04:49;17.67;;;6.57;;
40945;SDS011;55635;50.264;11.918;2024-02-21T07:07:30;19.27;;;7.10;;
40945;SDS011;55635;50.264;11.918;2024-02-21T07:10:11;16.70;;;7.00;;
40945;SDS011;55635;50.264;11.918;2024-02-21T07:12:52;19.92;;;7.28;;
40945;SDS011;55635;50.264;11.918;2024-02-21T07:15:33;16.38;;;6.60;;
40945;SDS011;55635;50.264;11.918;2024-02-21T07:18:14;10.20;;;5.20;;
40945;SDS011;55635;50.264;11.918;2024-02-21T07:20:56;17.35;;;6.18;;
40945;SDS011;55635;50.264;11.918;2024-02-21T07:23:37;20.55;;;6.22;;
40945;SDS011;55635;50.264;11.918;2024-02-21T07:26:22;14.20;;;6.70;;
40945;SDS011;55635;50.264;11.918;2024-02-21T07:29:03;16.75;;;6.55;;
40945;SDS011;55635;50.264;11.918;2024-02-21T07:31:44;15.18;;;5.47;;
40945;SDS011;55635;50.264;11.918;2024-02-21T07:34:28;18.65;;;6.85;;
40945;SDS011;55635;50.264;11.918;2024-02-21T07:37:09;10.63;;;5.38;;
40945;SDS011;55635;50.264;11.918;2024-02-21T07:39:50;16.90;;;6.03;;
40945;SDS011;55635;50.264;11.918;2024-02-21T07:42:31;14.40;;;5.10;;
40945;SDS011;55635;50.264;11.918;2024-02-21T07:45:12;16.88;;;5.40;;
40945;SDS011;55635;50.264;11.918;2024-02-21T07:47:53;18.23;;;5.97;;
40945;SDS011;55635;50.264;11.918;2024-02-21T07:50:34;13.48;;;5.97;;
40945;SDS011;55635;50.264;11.918;2024-02-21T07:53:15;13.68;;;5.32;;
40945;SDS011;55635;50.264;11.918;2024-02-21T07:55:56;14.07;;;5.78;;
40945;SDS011;55635;50.264;11.918;2024-02-21T07:58:37;13.98;;;5.43;;
40945;SDS011;55635;50.264;11.918;2024-02-21T08:01:18;15.60;;;5.55;;
40945;SDS011;55635;50.264;11.918;2024-02-21T08:04:00;12.95;;;5.72;;
40945;SDS011;55635;50.264;11.918;2024-02-21T08:06:42;15.68;;;5.43;;
40945;SDS011;55635;50.264;11.918;2024-02-21T08:09:25;15.23;;;4.93;;
40945;SDS011;55635;50.264;11.918;2024-02-21T08:12:06;10.02;;;4.82;;
40945;SDS011;55635;50.264;11.918;2024-02-21T08:14:47;14.73;;;5.03;;
40945;SDS011;55635;50.264;11.918;2024-02-21T08:17:28;12.25;;;5.28;;
40945;SDS011;55635;50.264;11.918;2024-02-21T08:20:09;13.07;;;5.93;;
40945;SDS011;55635;50.264;11.918;2024-02-21T08:22:50;16.58;;;6.50;;
40945;SDS011;55635;50.264;11.918;2024-02-21T08:25:32;13.93;;;6.00;;
40945;SDS011;55635;50.264;11.918;2024-02-21T08:28:13;18.33;;;5.68;;
40945;SDS011;55635;50.264;11.918;2024-02-21T08:30:54;17.08;;;5.97;;
40945;SDS011;55635;50.264;11.918;2024-02-21T08:33:35;11.18;;;5.65;;
40945;SDS011;55635;50.264;11.918;2024-02-21T08:36:17;20.75;;;7.15;;
40945;SDS011;55635;50.264;11.918;2024-02-21T08:39:02;22.08;;;6.80;;
40945;SDS011;55635;50.264;11.918;2024-02-21T08:41:44;15.50;;;6.57;;
40945;SDS011;55635;50.264;11.918;2024-02-21T08:44:27;13.80;;;5.68;;
40945;SDS011;55635;50.264;11.918;2024-02-21T08:47:08;18.85;;;5.97;;
40945;SDS011;55635;50.264;11.918;2024-02-21T08:49:50;17.20;;;6.80;;
40945;SDS011;55635;50.264;11.918;2024-02-21T08:52:30;11.77;;;5.32;;
40945;SDS011;55635;50.264;11.918;2024-02-21T08:55:12;10.85;;;4.95;;
40945;SDS011;55635;50.264;11.918;2024-02-21T08:57:53;18.48;;;5.10;;
40945;SDS011;55635;50.264;11.918;2024-02-21T09:00:34;9.10;;;5.40;;
40945;SDS011;55635;50.264;11.918;2024-02-21T09:03:15;11.70;;;5.07;;
40945;SDS011;55635;50.264;11.918;2024-02-21T09:05:58;8.63;;;4.45;;
40945;SDS011;55635;50.264;11.918;2024-02-21T09:08:39;12.82;;;4.72;;
40945;SDS011;55635;50.264;11.918;2024-02-21T09:11:20;9.07;;;4.30;;
40945;SDS011;55635;50.264;11.918;2024-02-21T09:14:01;10.77;;;3.92;;
40945;SDS011;55635;50.264;11.918;2024-02-21T09:16:43;9.15;;;4.35;;
40945;SDS011;55635;50.264;11.918;2024-02-21T09:19:24;14.20;;;4.63;;
40945;SDS011;55635;50.264;11.918;2024-02-21T09:22:05;10.32;;;5.03;;
40945;SDS011;55635;50.264;11.918;2024-02-21T09:24:46;9.25;;;5.22;;
40945;SDS011;55635;50.264;11.918;2024-02-21T09:27:28;10.57;;;4.60;;
40945;SDS011;55635;50.264;11.918;2024-02-21T09:30:09;17.13;;;4.72;;
40945;SDS011;55635;50.264;11.918;2024-02-21T09:32:51;9.10;;;4.32;;
40945;SDS011;55635;50.264;11.918;2024-02-21T09:35:33;12.30;;;4.53;;
40945;SDS011;55635;50.264;11.918;2024-02-21T09:38:14;12.15;;;4.90;;
40945;SDS011;55635;50.264;11.918;2024-02-21T09:41:06;10.40;;;4.78;;
40945;SDS011;55635;50.264;11.918;2024-02-21T09:43:59;11.32;;;4.20;;
40945;SDS011;55635;50.264;11.918;2024-02-21T09:49:33;7.93;;;4.70;;
40945;SDS011;55635;50.264;11.918;2024-02-21T09:52:17;12.73;;;4.30;;
40945;SDS011;55635;50.264;11.918;2024-02-21T09:55:01;7.22;;;4.10;;
40945;SDS011;55635;50.264;11.918;2024-02-21T09:57:45;13.35;;;4.43;;
40945;SDS011;55635;50.264;11.918;2024-02-21T10:00:26;10.88;;;4.72;;
40945;SDS011;55635;50.264;11.918;2024-02-21T10:03:08;11.48;;;4.60;;
40945;SDS011;55635;50.264;11.918;2024-02-21T10:05:49;10.13;;;4.40;;
40945;SDS011;55635;50.264;11.918;2024-02-21T10:08:30;6.57;;;4.18;;
40945;SDS011;55635;50.264;11.918;2024-02-21T10:11:21;9.68;;;4.28;;
40945;SDS011;55635;50.264;11.918;2024-02-21T10:16:47;6.82;;;3.72;;
40945;SDS011;55635;50.264;11.918;2024-02-21T10:19:29;10.80;;;3.58;;
40945;SDS011;55635;50.264;11.918;2024-02-21T10:22:10;9.45;;;4.03;;
40945;SDS011;55635;50.264;11.918;2024-02-21T10:24:51;12.13;;;4.00;;
40945;SDS011;55635;50.264;11.918;2024-02-21T10:27:34;9.13;;;3.88;;
40945;SDS011;55635;50.264;11.918;2024-02-21T10:30:17;8.63;;;4.18;;
40945;SDS011;55635;50.264;11.918;2024-02-21T10:32:58;9.50;;;3.40;;
40945;SDS011;55635;50.264;11.918;2024-02-21T10:35:39;7.47;;;4.15;;
40945;SDS011;55635;50.264;11.918;2024-02-21T10:38:20;10.43;;;3.97;;
40945;SDS011;55635;50.264;11.918;2024-02-21T10:41:01;7.40;;;3.83;;
40945;SDS011;55635;50.264;11.918;2024-02-21T10:43:46;7.85;;;3.42;;
40945;SDS011;55635;50.264;11.918;2024-02-21T10:46:34;9.57;;;4.50;;
40945;SDS011;55635;50.264;11.918;2024-02-21T10:49:20;13.55;;;3.55;;
40945;SDS011;55635;50.264;11.918;2024-02-21T10:55:14;5.60;;;2.67;;
40945;SDS011;55635;50.264;11.918;2024-02-21T10:58:01;11.93;;;4.25;;
40945;SDS011;55635;50.264;11.918;2024-02-21T11:00:43;9.27;;;3.50;;
40945;SDS011;55635;50.264;11.918;2024-02-21T11:03:24;7.53;;;3.20;;
40945;SDS011;55635;50.264;11.918;2024-02-21T11:06:05;8.40;;;2.70;;
40945;SDS011;55635;50.264;11.918;2024-02-21T11:11:49;9.52;;;3.15;;
40945;SDS011;55635;50.264;11.918;2024-02-21T11:14:31;11.15;;;3.13;;
40945;SDS011;55635;50.264;11.918;2024-02-21T11:17:18;6.45;;;2.90;;
40945;SDS011;55635;50.264;11.918;2024-02-21T11:20:13;12.32;;;2.83;;
40945;SDS011;55635;50.264;11.918;2024-02-21T11:22:54;10.10;;;3.22;;
40945;SDS011;55635;50.264;11.918;2024-02-21T11:25:35;7.88;;;3.58;;
40945;SDS011;55635;50.264;11.918;2024-02-21T11:28:16;7.22;;;2.97;;
40945;SDS011;55635;50.264;11.918;2024-02-21T11:31:10;8.48;;;3.20;;
40945;SDS011;55635;50.264;11.918;2024-02-21T11:33:54;8.45;;;3.28;;
40945;SDS011;55635;50.264;11.918;2024-02-21T11:36:50;11.00;;;3.35;;
40945;SDS011;55635;50.264;11.918;2024-02-21T11:39:33;6.30;;;3.13;;
40945;SDS011;55635;50.264;11.918;2024-02-21T11:42:15;6.82;;;3.20;;
40945;SDS011;55635;50.264;11.918;2024-02-21T11:44:56;7.18;;;3.15;;
40945;SDS011;55635;50.264;11.918;2024-02-21T11:47:37;9.60;;;3.42;;
40945;SDS011;55635;50.264;11.918;2024-02-21T11:50:19;7.82;;;3.15;;
40945;SDS011;55635;50.264;11.918;2024-02-21T11:53:00;10.25;;;3.10;;
40945;SDS011;55635;50.264;11.918;2024-02-21T11:55:41;5.88;;;2.55;;
40945;SDS011;55635;50.264;11.918;2024-02-21T11:58:22;6.72;;;2.83;;
40945;SDS011;55635;50.264;11.918;2024-02-21T12:01:03;9.57;;;2.90;;
40945;SDS011;55635;50.264;11.918;2024-02-21T12:03:44;4.97;;;2.78;;
40945;SDS011;55635;50.264;11.918;2024-02-21T12:06:29;8.15;;;3.15;;
40945;SDS011;55635;50.264;11.918;2024-02-21T12:09:15;9.18;;;3.25;;
40945;SDS011;55635;50.264;11.918;2024-02-21T12:12:00;7.55;;;3.83;;
40945;SDS011;55635;50.264;11.918;2024-02-21T12:14:44;8.88;;;3.08;;
40945;SDS011;55635;50.264;11.918;2024-02-21T12:17:36;6.40;;;3.40;;
40945;SDS011;55635;50.264;11.918;2024-02-21T12:20:17;7.95;;;3.05;;
40945;SDS011;55635;50.264;11.918;2024-02-21T12:23:00;10.30;;;3.20;;
40945;SDS011;55635;50.264;11.918;2024-02-21T12:25:41;6.60;;;3.03;;
40945;SDS011;55635;50.264;11.918;2024-02-21T12:28:23;8.68;;;2.90;;
40945;SDS011;55635;50.264;11.918;2024-02-21T12:31:04;8.52;;;2.92;;
40945;SDS011;55635;50.264;11.918;2024-02-21T12:33:45;6.35;;;2.30;;
40945;SDS011;55635;50.264;11.918;2024-02-21T12:36:26;5.45;;;2.03;;
40945;SDS011;55635;50.264;11.918;2024-02-21T12:39:07;8.15;;;2.67;;
40945;SDS011;55635;50.264;11.918;2024-02-21T12:41:48;5.68;;;2.20;;
40945;SDS011;55635;50.264;11.918;2024-02-21T12:44:29;5.03;;;2.50;;
40945;SDS011;55635;50.264;11.918;2024-02-21T12:47:10;4.90;;;2.88;;
40945;SDS011;55635;50.264;11.918;2024-02-21T12:49:52;4.15;;;2.33;;
40945;SDS011;55635;50.264;11.918;2024-02-21T12:52:33;6.20;;;2.60;;
40945;SDS011;55635;50.264;11.918;2024-02-21T12:55:14;9.45;;;2.67;;
40945;SDS011;55635;50.264;11.918;2024-02-21T12:57:56;7.00;;;2.60;;
40945;SDS011;55635;50.264;11.918;2024-02-21T13:00:43;5.07;;;2.40;;
40945;SDS011;55635;50.264;11.918;2024-02-21T13:03:24;7.30;;;2.17;;
40945;SDS011;55635;50.264;11.918;2024-02-21T13:06:05;8.93;;;2.28;;
40945;SDS011;55635;50.264;11.918;2024-02-21T13:08:52;5.25;;;2.58;;
40945;SDS011;55635;50.264;11.918;2024-02-21T13:11:34;4.38;;;2.25;;
40945;SDS011;55635;50.264;11.918;2024-02-21T13:14:15;5.63;;;2.38;;
40945;SDS011;55635;50.264;11.918;2024-02-21T13:16:56;6.95;;;2.50;;
40945;SDS011;55635;50.264;11.918;2024-02-21T13:19:37;4.90;;;2.38;;
40945;SDS011;55635;50.264;11.918;2024-02-21T13:22:18;8.00;;;2.60;;
40945;SDS011;55635;50.264;11.918;2024-02-21T13:25:02;5.72;;;2.30;;
40945;SDS011;55635;50.264;11.918;2024-02-21T13:27:45;4.80;;;2.20;;
40945;SDS011;55635;50.264;11.918;2024-02-21T13:30:26;8.13;;;2.53;;
40945;SDS011;55635;50.264;11.918;2024-02-21T13:33:07;7.43;;;2.65;;
40945;SDS011;55635;50.264;11.918;2024-02-21T13:35:49;4.70;;;2.05;;
40945;SDS011;55635;50.264;11.918;2024-02-21T13:38:30;5.30;;;2.00;;
40945;SDS011;55635;50.264;11.918;2024-02-21T13:41:11;6.13;;;2.60;;
40945;SDS011;55635;50.264;11.918;2024-02-21T13:43:52;9.23;;;2.53;;
40945;SDS011;55635;50.264;11.918;2024-02-21T13:46:33;5.97;;;2.22;;
40945;SDS011;55635;50.264;11.918;2024-02-21T13:49:15;6.35;;;2.53;;
40945;SDS011;55635;50.264;11.918;2024-02-21T13:51:56;9.80;;;2.25;;
40945;SDS011;55635;50.264;11.918;2024-02-21T13:54:37;7.07;;;2.25;;
40945;SDS011;55635;50.264;11.918;2024-02-21T13:57:18;3.78;;;1.90;;
40945;SDS011;55635;50.264;11.918;2024-02-21T13:59:59;6.32;;;2.50;;
40945;SDS011;55635;50.264;11.918;2024-02-21T14:02:40;5.25;;;2.25;;
40945;SDS011;55635;50.264;11.918;2024-02-21T14:05:21;8.82;;;2.33;;
40945;SDS011;55635;50.264;11.918;2024-02-21T14:08:02;6.45;;;1.80;;
40945;SDS011;55635;50.264;11.918;2024-02-21T14:10:43;7.25;;;2.38;;
40945;SDS011;55635;50.264;11.918;2024-02-21T14:13:24;8.50;;;2.00;;
40945;SDS011;55635;50.264;11.918;2024-02-21T14:16:09;5.43;;;1.98;;
40945;SDS011;55635;50.264;11.918;2024-02-21T14:18:53;7.72;;;2.30;;
40945;SDS011;55635;50.264;11.918;2024-02-21T14:21:36;5.53;;;1.85;;
40945;SDS011;55635;50.264;11.918;2024-02-21T14:24:17;5.10;;;2.20;;
40945;SDS011;55635;50.264;11.918;2024-02-21T14:26:58;5.85;;;2.00;;
40945;SDS011;55635;50.264;11.918;2024-02-21T14:29:39;5.85;;;2.30;;
40945;SDS011;55635;50.264;11.918;2024-02-21T14:32:20;5.95;;;1.65;;
40945;SDS011;55635;50.264;11.918;2024-02-21T14:35:01;3.85;;;1.63;;
40945;SDS011;55635;50.264;11.918;2024-02-21T14:37:42;7.57;;;2.05;;
40945;SDS011;55635;50.264;11.918;2024-02-21T14:40:24;4.57;;;1.60;;
40945;SDS011;55635;50.264;11.918;2024-02-21T14:43:10;4.53;;;1.95;;
40945;SDS011;55635;50.264;11.918;2024-02-21T14:45:51;3.92;;;1.90;;
40945;SDS011;55635;50.264;11.918;2024-02-21T14:48:32;4.68;;;2.28;;
40945;SDS011;55635;50.264;11.918;2024-02-21T14:51:13;6.13;;;1.92;;
40945;SDS011;55635;50.264;11.918;2024-02-21T14:53:54;9.23;;;2.08;;
40945;SDS011;55635;50.264;11.918;2024-02-21T14:56:35;6.20;;;2.42;;
40945;SDS011;55635;50.264;11.918;2024-02-21T14:59:16;7.63;;;2.08;;
40945;SDS011;55635;50.264;11.918;2024-02-21T15:01:57;6.65;;;2.08;;
40945;SDS011;55635;50.264;11.918;2024-02-21T15:04:38;7.57;;;2.20;;
40945;SDS011;55635;50.264;11.918;2024-02-21T15:07:19;4.32;;;1.77;;
40945;SDS011;55635;50.264;11.918;2024-02-21T15:10:04;4.07;;;1.70;;
40945;SDS011;55635;50.264;11.918;2024-02-21T15:12:46;5.38;;;2.00;;
40945;SDS011;55635;50.264;11.918;2024-02-21T15:15:27;7.05;;;2.00;;
40945;SDS011;55635;50.264;11.918;2024-02-21T15:18:08;3.65;;;1.75;;
40945;SDS011;55635;50.264;11.918;2024-02-21T15:20:49;6.80;;;2.28;;
40945;SDS011;55635;50.264;11.918;2024-02-21T15:23:30;6.07;;;1.77;;
40945;SDS011;55635;50.264;11.918;2024-02-21T15:26:11;4.97;;;2.10;;
40945;SDS011;55635;50.264;11.918;2024-02-21T15:28:55;5.95;;;2.10;;
40945;SDS011;55635;50.264;11.918;2024-02-21T15:31:36;7.38;;;2.47;;
40945;SDS011;55635;50.264;11.918;2024-02-21T15:34:17;7.53;;;1.90;;
40945;SDS011;55635;50.264;11.918;2024-02-21T15:36:58;7.45;;;2.63;;
40945;SDS011;55635;50.264;11.918;2024-02-21T15:39:39;8.82;;;2.30;;
40945;SDS011;55635;50.264;11.918;2024-02-21T15:42:20;7.82;;;2.03;;
40945;SDS011;55635;50.264;11.918;2024-02-21T15:45:02;8.23;;;2.25;;
40945;SDS011;55635;50.264;11.918;2024-02-21T15:47:47;5.32;;;2.00;;
40945;SDS011;55635;50.264;11.918;2024-02-21T15:50:28;7.25;;;2.00;;
40945;SDS011;55635;50.264;11.918;2024-02-21T15:53:12;6.65;;;2.60;;
40945;SDS011;55635;50.264;11.918;2024-02-21T15:55:53;5.25;;;2.00;;
40945;SDS011;55635;50.264;11.918;2024-02-21T15:58:34;4.95;;;2.30;;
40945;SDS011;55635;50.264;11.918;2024-02-21T16:01:15;8.02;;;2.20;;
40945;SDS011;55635;50.264;11.918;2024-02-21T16:03:56;9.32;;;2.25;;